createdAt,value
2022-11-24T00:00:50.166Z,259.27
2022-11-24T00:03:16.794Z,319.02
2022-11-24T00:05:43.440Z,310.35
2022-11-24T00:08:10.310Z,283.75
2022-11-24T00:10:36.727Z,316.35
2022-11-24T00:13:03.310Z,291.70
2022-11-24T00:15:29.789Z,324.17
2022-11-24T00:17:56.656Z,289.77
2022-11-24T00:20:23.074Z,279.77
2022-11-24T00:22:49.771Z,295.30
2022-11-24T00:25:16.235Z,266.73
2022-11-24T00:27:42.941Z,276.83
2022-11-24T00:30:09.911Z,253.45
2022-11-24T00:32:36.334Z,302.10
2022-11-24T00:35:02.786Z,318.90
2022-11-24T00:37:29.282Z,297.98
2022-11-24T00:39:55.915Z,299.33
2022-11-24T00:42:22.338Z,281.00
2022-11-24T00:44:48.959Z,281.63
2022-11-24T00:47:15.549Z,314.48
2022-11-24T00:49:41.997Z,296.83
2022-11-24T00:52:08.530Z,324.45
2022-11-24T00:54:35.264Z,262.80
2022-11-24T00:57:01.962Z,300.45
2022-11-24T00:59:28.410Z,254.20
2022-11-24T01:01:55.171Z,252.43
2022-11-24T01:04:21.934Z,269.48
2022-11-24T01:06:48.437Z,266.40
2022-11-24T01:09:14.903Z,257.58
2022-11-24T01:12:00.026Z,250.25
2022-11-24T01:14:26.888Z,272.50
2022-11-24T01:16:54.035Z,240.93
2022-11-24T01:19:20.808Z,237.50
2022-11-24T01:21:47.487Z,300.13
2022-11-24T01:24:14.639Z,283.65
2022-11-24T01:26:41.366Z,266.45
2022-11-24T01:29:07.976Z,284.30
2022-11-24T01:31:34.480Z,215.10
2022-11-24T01:34:00.872Z,252.50
2022-11-24T01:36:27.302Z,272.90
2022-11-24T01:38:56.030Z,281.75
2022-11-24T01:41:25.295Z,285.67
2022-11-24T01:43:53.193Z,242.95
2022-11-24T01:46:24.167Z,253.52
2022-11-24T01:49:11.337Z,259.00
2022-11-24T01:51:48.145Z,271.00
2022-11-24T01:54:19.055Z,275.27
2022-11-24T01:56:47.871Z,256.83
2022-11-24T01:59:15.715Z,228.10
2022-11-24T02:01:42.319Z,228.25
2022-11-24T02:04:13.066Z,280.25
2022-11-24T02:06:40.688Z,268.83
2022-11-24T02:09:13.643Z,263.55
2022-11-24T02:11:40.890Z,244.15
2022-11-24T02:14:10.071Z,258.63
2022-11-24T02:16:37.280Z,266.02
2022-11-24T02:19:14.474Z,241.45
2022-11-24T02:21:40.886Z,263.27
2022-11-24T02:24:17.727Z,248.90
2022-11-24T02:26:46.846Z,228.93
2022-11-24T02:29:14.322Z,221.65
2022-11-24T02:31:46.802Z,210.75
2022-11-24T02:34:13.206Z,193.77
2022-11-24T02:36:39.691Z,229.05
2022-11-24T02:39:12.090Z,194.88
2022-11-24T02:41:42.657Z,219.77
2022-11-24T02:44:09.243Z,225.05
2022-11-24T02:46:35.796Z,181.18
2022-11-24T02:49:02.279Z,209.95
2022-11-24T02:51:29.569Z,207.45
2022-11-24T02:53:56.012Z,243.27
2022-11-24T02:56:22.560Z,216.48
2022-11-24T02:58:49.020Z,246.65
2022-11-24T03:01:15.462Z,220.15
2022-11-24T03:03:42.013Z,199.90
2022-11-24T03:06:08.628Z,205.30
2022-11-24T03:08:35.144Z,207.07
2022-11-24T03:11:02.273Z,187.48
2022-11-24T03:13:29.187Z,199.95
2022-11-24T03:15:55.648Z,161.50
2022-11-24T03:18:22.249Z,184.13
2022-11-24T03:20:48.678Z,197.48
2022-11-24T03:23:15.110Z,223.77
2022-11-24T03:25:41.652Z,159.98
2022-11-24T03:28:08.211Z,214.95
2022-11-24T03:30:34.636Z,195.88
2022-11-24T03:33:01.055Z,223.32
2022-11-24T03:35:27.673Z,227.02
2022-11-24T03:37:54.078Z,213.48
2022-11-24T03:40:20.531Z,181.88
2022-11-24T03:42:47.038Z,201.18
2022-11-24T03:47:59.895Z,256.23
2022-11-24T03:50:26.366Z,244.55
2022-11-24T03:52:52.825Z,223.38
2022-11-24T03:55:19.266Z,190.45
2022-11-24T03:57:45.723Z,213.88
2022-11-24T04:00:12.429Z,183.05
2022-11-24T04:02:39.012Z,160.65
2022-11-24T04:05:06.055Z,232.30
2022-11-24T04:07:32.554Z,158.00
2022-11-24T04:09:59.065Z,206.45
2022-11-24T04:12:44.059Z,178.45
2022-11-24T04:15:16.007Z,235.52
2022-11-24T04:17:42.850Z,192.60
2022-11-24T04:20:10.552Z,184.02
2022-11-24T04:22:37.009Z,272.58
2022-11-24T04:25:04.984Z,254.13
2022-11-24T04:27:33.296Z,211.68
2022-11-24T04:30:00.153Z,209.27
2022-11-24T04:32:26.631Z,192.88
2022-11-24T04:34:53.108Z,208.05
2022-11-24T04:37:19.660Z,182.07
2022-11-24T04:39:46.397Z,190.32
2022-11-24T04:42:13.374Z,177.57
2022-11-24T04:44:40.059Z,158.88
2022-11-24T04:47:06.596Z,158.50
2022-11-24T04:49:33.062Z,160.55
2022-11-24T04:51:59.475Z,174.70
2022-11-24T04:54:25.882Z,168.23
2022-11-24T04:56:52.702Z,179.15
2022-11-24T04:59:19.435Z,182.45
2022-11-24T05:01:46.700Z,190.50
2022-11-24T05:04:15.205Z,134.45
2022-11-24T05:06:41.789Z,194.68
2022-11-24T05:09:08.868Z,180.52
2022-11-24T05:11:35.415Z,192.73
2022-11-24T05:14:02.190Z,155.93
2022-11-24T05:16:28.838Z,128.27
2022-11-24T05:18:55.312Z,167.35
2022-11-24T05:21:21.710Z,181.07
2022-11-24T05:23:48.116Z,148.00
2022-11-24T05:26:14.587Z,173.30
2022-11-24T05:28:41.037Z,135.25
2022-11-24T05:31:07.577Z,153.73
2022-11-24T05:33:34.161Z,129.32
2022-11-24T05:36:02.402Z,133.45
2022-11-24T05:38:30.140Z,170.50
2022-11-24T05:41:04.352Z,160.10
2022-11-24T05:43:30.972Z,139.68
2022-11-24T05:46:01.378Z,186.63
2022-11-24T05:48:28.335Z,152.50
2022-11-24T05:50:56.265Z,191.27
2022-11-24T05:53:23.176Z,124.93
2022-11-24T05:55:49.768Z,105.47
2022-11-24T05:58:16.195Z,127.05
2022-11-24T06:00:42.820Z,153.82
2022-11-24T06:03:11.028Z,198.20
2022-11-24T06:05:37.576Z,170.48
2022-11-24T06:08:05.292Z,212.20
2022-11-24T06:10:31.753Z,195.05
2022-11-24T06:12:58.196Z,264.77
2022-11-24T06:15:24.651Z,218.30
2022-11-24T06:17:55.674Z,164.10
2022-11-24T06:20:27.008Z,161.05
2022-11-24T06:22:58.819Z,229.32
2022-11-24T06:25:25.382Z,181.52
2022-11-24T06:27:52.039Z,175.00
2022-11-24T06:30:18.429Z,157.30
2022-11-24T06:32:49.321Z,143.15
2022-11-24T06:35:16.606Z,181.55
2022-11-24T06:37:43.051Z,149.88
2022-11-24T06:40:10.349Z,156.80
2022-11-24T06:42:37.284Z,142.90
2022-11-24T06:45:08.800Z,138.10
2022-11-24T06:47:36.174Z,143.43
2022-11-24T06:50:02.685Z,108.47
2022-11-24T06:52:29.169Z,103.38
2022-11-24T06:54:55.651Z,132.15
2022-11-24T06:57:22.076Z,129.73
2022-11-24T06:59:48.559Z,135.65
2022-11-24T07:02:15.142Z,134.20
2022-11-24T07:04:41.577Z,126.45
2022-11-24T07:07:08.250Z,113.18
2022-11-24T07:09:34.678Z,130.98
2022-11-24T07:12:02.245Z,109.70
2022-11-24T07:14:28.704Z,117.35
2022-11-24T07:16:55.190Z,96.68
2022-11-24T07:19:24.883Z,94.00
2022-11-24T07:21:51.786Z,101.13
2022-11-24T07:24:18.823Z,97.45
2022-11-24T07:26:45.359Z,99.32
2022-11-24T07:29:11.801Z,93.53
2022-11-24T07:31:38.316Z,81.50
2022-11-24T07:34:05.041Z,89.97
2022-11-24T07:36:31.570Z,84.38
2022-11-24T07:38:58.070Z,96.85
2022-11-24T07:41:24.757Z,84.97
2022-11-24T07:43:51.835Z,82.90
2022-11-24T07:46:19.835Z,92.05
2022-11-24T07:48:47.833Z,85.88
2022-11-24T07:51:14.753Z,93.57
2022-11-24T07:53:41.305Z,85.55
2022-11-24T07:56:09.261Z,105.78
2022-11-24T07:58:37.079Z,90.57
2022-11-24T08:01:15.470Z,90.57
2022-11-24T08:03:43.016Z,100.20
2022-11-24T08:06:30.288Z,95.30
2022-11-24T08:08:57.231Z,91.07
2022-11-24T08:11:23.969Z,101.07
2022-11-24T08:13:50.459Z,92.43
2022-11-24T08:16:18.837Z,91.55
2022-11-24T08:18:50.750Z,105.20
2022-11-24T08:21:17.771Z,91.05
2022-11-24T08:23:44.361Z,80.30
2022-11-24T08:26:17.602Z,83.47
2022-11-24T08:28:45.383Z,84.65
2022-11-24T08:31:15.143Z,103.25
2022-11-24T08:33:42.306Z,78.70
2022-11-24T08:36:14.968Z,73.93
2022-11-24T08:38:41.892Z,83.57
2022-11-24T08:41:11.958Z,76.00
2022-11-24T08:43:38.738Z,74.70
2022-11-24T08:46:07.604Z,76.50
2022-11-24T08:48:34.513Z,72.25
2022-11-24T08:51:07.883Z,75.97
2022-11-24T08:53:34.281Z,62.83
2022-11-24T08:56:01.282Z,72.43
2022-11-24T08:58:31.264Z,65.55
2022-11-24T09:01:07.350Z,56.85
2022-11-24T09:03:34.783Z,57.72
2022-11-24T09:06:02.375Z,50.08
2022-11-24T09:08:32.392Z,51.60
2022-11-24T09:11:03.718Z,51.08
2022-11-24T09:13:30.216Z,49.55
2022-11-24T09:15:56.687Z,51.25
2022-11-24T09:18:27.492Z,47.60
2022-11-24T09:21:11.646Z,50.58
2022-11-24T09:23:38.253Z,52.78
2022-11-24T09:26:05.690Z,51.10
2022-11-24T09:28:32.192Z,49.40
2022-11-24T09:31:03.612Z,47.22
2022-11-24T09:33:31.565Z,43.55
2022-11-24T09:35:58.671Z,48.55
2022-11-24T09:38:25.507Z,50.03
2022-11-24T09:40:54.473Z,45.08
2022-11-24T09:43:47.962Z,44.92
2022-11-24T09:46:25.780Z,41.30
2022-11-24T09:48:56.579Z,42.78
2022-11-24T09:51:27.014Z,42.03
2022-11-24T09:56:27.904Z,40.95
2022-11-24T09:59:05.285Z,43.75
2022-11-24T10:01:35.661Z,42.47
2022-11-24T10:04:06.217Z,44.15
2022-11-24T10:06:43.824Z,40.58
2022-11-24T10:09:36.660Z,41.03
2022-11-24T10:12:23.482Z,45.20
2022-11-24T10:15:11.058Z,41.10
2022-11-24T10:17:46.542Z,40.15
2022-11-24T10:20:24.149Z,42.15
2022-11-24T10:23:54.065Z,38.13
2022-11-24T10:26:34.976Z,35.80
2022-11-24T10:29:02.788Z,37.40
2022-11-24T10:31:34.192Z,38.10
2022-11-24T10:34:16.518Z,42.70
2022-11-24T10:37:07.120Z,34.50
2022-11-24T10:40:00.968Z,37.97
2022-11-24T10:42:33.386Z,39.72
2022-11-24T10:45:09.325Z,40.75
2022-11-24T10:47:35.861Z,42.15
2022-11-24T10:50:17.591Z,42.10
2022-11-24T10:52:50.744Z,43.10
2022-11-24T10:55:17.170Z,44.67
2022-11-24T10:57:45.121Z,40.55
2022-11-24T11:00:20.771Z,43.63
2022-11-24T11:02:48.833Z,41.28
2022-11-24T11:05:41.730Z,43.63
2022-11-24T11:08:14.282Z,37.95
2022-11-24T11:10:42.306Z,39.45
2022-11-24T11:13:23.238Z,39.22
2022-11-24T11:15:49.932Z,40.92
2022-11-24T11:18:18.249Z,42.15
2022-11-24T11:20:56.370Z,42.30
2022-11-24T11:26:11.878Z,39.28
2022-11-24T11:28:38.394Z,39.83
2022-11-24T11:31:22.808Z,41.95
2022-11-24T11:34:23.280Z,44.45
2022-11-24T11:36:56.051Z,42.83
2022-11-24T11:39:31.030Z,41.78
2022-11-24T11:42:07.246Z,42.17
2022-11-24T11:44:41.752Z,40.22
2022-11-24T11:47:15.539Z,44.60
2022-11-24T11:49:42.062Z,37.92
2022-11-24T11:52:23.051Z,38.05
2022-11-24T11:54:58.840Z,35.22
2022-11-24T11:57:54.525Z,34.60
2022-11-24T12:00:22.440Z,43.10
2022-11-24T12:03:20.405Z,34.45
2022-11-24T12:06:00.217Z,37.50
2022-11-24T12:08:56.012Z,45.15
2022-11-24T12:11:42.609Z,34.60
2022-11-24T12:14:42.809Z,37.65
2022-11-24T12:17:24.836Z,37.72
2022-11-24T12:20:15.253Z,39.38
2022-11-24T12:22:53.722Z,38.58
2022-11-24T12:25:41.963Z,39.63
2022-11-24T12:28:18.182Z,41.67
2022-11-24T12:31:04.781Z,39.90
2022-11-24T12:34:03.881Z,37.33
2022-11-24T12:36:45.320Z,42.47
2022-11-24T12:39:37.149Z,39.72
2022-11-24T12:42:35.685Z,36.05
2022-11-24T12:45:15.734Z,38.15
2022-11-24T12:47:53.418Z,40.65
2022-11-24T12:50:24.260Z,36.92
2022-11-24T12:52:58.877Z,40.90
2022-11-24T12:55:27.636Z,40.58
2022-11-24T12:58:09.334Z,44.42
2022-11-24T13:01:16.666Z,40.65
2022-11-24T13:04:10.236Z,36.70
2022-11-24T13:06:49.404Z,39.20
2022-11-24T13:09:16.815Z,35.53
2022-11-24T13:11:46.952Z,38.67
2022-11-24T13:14:22.091Z,47.03
2022-11-24T13:17:28.066Z,43.25
2022-11-24T13:19:39.060Z,42.17
2022-11-24T13:22:08.434Z,40.67
2022-11-24T13:24:37.387Z,44.78
2022-11-24T13:27:13.310Z,44.17
2022-11-24T13:29:41.820Z,42.83
2022-11-24T13:32:08.233Z,39.35
2022-11-24T13:34:40.631Z,40.70
2022-11-24T13:37:33.667Z,39.83
2022-11-24T13:40:11.311Z,41.50
2022-11-24T13:43:01.658Z,39.20
2022-11-24T13:45:41.173Z,43.25
2022-11-24T13:48:20.195Z,43.65
2022-11-24T13:50:50.197Z,45.72
2022-11-24T13:53:34.106Z,41.88
2022-11-24T13:56:09.834Z,51.85
2022-11-24T13:58:47.848Z,50.15
2022-11-24T14:01:24.076Z,42.97
2022-11-24T14:04:34.977Z,44.13
2022-11-24T14:09:54.072Z,42.95
2022-11-24T14:12:23.216Z,41.45
2022-11-24T14:14:51.626Z,39.55
2022-11-24T14:17:24.188Z,40.42
2022-11-24T14:19:53.425Z,43.88
2022-11-24T14:22:21.617Z,39.92
2022-11-24T14:24:53.662Z,42.83
2022-11-24T14:27:26.119Z,44.08
2022-11-24T14:29:57.792Z,42.33
2022-11-24T14:32:24.528Z,43.75
2022-11-24T14:34:52.143Z,43.42
2022-11-24T14:37:21.477Z,34.88
2022-11-24T14:39:48.435Z,38.70
2022-11-24T14:42:23.845Z,38.65
2022-11-24T14:44:54.298Z,40.35
2022-11-24T14:47:31.363Z,38.15
2022-11-24T14:50:10.713Z,38.50
2022-11-24T14:52:44.497Z,43.30
2022-11-24T14:55:27.216Z,40.55
2022-11-24T14:57:53.873Z,41.60
2022-11-24T15:00:28.313Z,46.03
2022-11-24T15:03:08.230Z,39.78
2022-11-24T15:05:55.656Z,39.50
2022-11-24T15:08:24.606Z,39.83
2022-11-24T15:10:58.495Z,39.65
2022-11-24T15:13:25.256Z,39.40
2022-11-24T15:16:01.815Z,39.30
2022-11-24T15:18:41.938Z,36.88
2022-11-24T15:21:12.953Z,44.25
2022-11-24T15:23:42.836Z,38.60
2022-11-24T15:26:11.948Z,38.22
2022-11-24T15:28:38.813Z,43.88
2022-11-24T15:31:09.537Z,38.80
2022-11-24T15:33:36.486Z,36.78
2022-11-24T15:36:02.927Z,41.55
2022-11-24T15:38:29.454Z,37.35
2022-11-24T15:40:59.035Z,41.00
2022-11-24T15:43:34.129Z,44.58
2022-11-24T15:46:01.439Z,38.83
2022-11-24T15:48:28.869Z,40.28
2022-11-24T15:50:56.910Z,39.00
2022-11-24T15:53:28.016Z,39.38
2022-11-24T15:55:56.314Z,39.70
2022-11-24T15:58:23.336Z,39.78
2022-11-24T16:00:50.970Z,44.03
2022-11-24T16:03:45.642Z,38.80
2022-11-24T16:06:03.907Z,35.95
2022-11-24T16:08:30.393Z,40.70
2022-11-24T16:10:56.822Z,40.95
2022-11-24T16:13:23.227Z,45.38
2022-11-24T16:15:49.988Z,38.55
2022-11-24T16:18:16.578Z,38.80
2022-11-24T16:20:42.987Z,41.33
2022-11-24T16:23:09.426Z,43.15
2022-11-24T16:25:36.285Z,46.25
2022-11-24T16:28:02.779Z,40.97
2022-11-24T16:30:29.207Z,41.15
2022-11-24T16:32:55.684Z,45.45
2022-11-24T16:35:22.105Z,37.88
2022-11-24T16:37:51.536Z,41.65
2022-11-24T16:40:18.321Z,38.63
2022-11-24T16:42:44.898Z,40.03
2022-11-24T16:45:12.965Z,38.40
2022-11-24T16:47:41.574Z,35.15
2022-11-24T16:50:09.984Z,37.58
2022-11-24T16:52:36.717Z,40.45
2022-11-24T16:55:04.026Z,41.20
2022-11-24T16:57:30.682Z,37.40
2022-11-24T16:59:57.093Z,40.67
2022-11-24T17:02:23.606Z,36.97
2022-11-24T17:04:52.423Z,37.70
2022-11-24T17:07:19.793Z,47.50
2022-11-24T17:09:46.275Z,53.75
2022-11-24T17:12:12.709Z,48.38
2022-11-24T17:14:39.179Z,43.35
2022-11-24T17:17:05.668Z,42.53
2022-11-24T17:19:32.228Z,38.35
2022-11-24T17:21:58.804Z,39.35
2022-11-24T17:24:25.236Z,42.80
2022-11-24T17:26:51.671Z,43.88
2022-11-24T17:29:18.516Z,43.30
2022-11-24T17:31:45.036Z,42.47
2022-11-24T17:34:12.153Z,43.38
2022-11-24T17:36:39.732Z,47.75
2022-11-24T17:39:07.141Z,41.90
2022-11-24T17:41:34.062Z,42.88
2022-11-24T17:44:01.190Z,48.15
2022-11-24T17:46:29.252Z,43.17
2022-11-24T17:48:55.782Z,49.28
2022-11-24T17:51:24.485Z,47.85
2022-11-24T17:53:52.366Z,51.97
2022-11-24T17:56:24.953Z,51.50
2022-11-24T17:58:56.365Z,50.72
2022-11-24T18:01:23.267Z,48.92
2022-11-24T18:03:53.375Z,50.80
2022-11-24T18:06:20.544Z,49.72
2022-11-24T18:08:47.602Z,55.88
2022-11-24T18:11:30.546Z,49.97
2022-11-24T18:14:01.437Z,45.55
2022-11-24T18:16:30.347Z,45.90
2022-11-24T18:19:08.416Z,38.78
2022-11-24T18:21:40.847Z,42.00
2022-11-24T18:24:11.573Z,44.15
2022-11-24T18:26:39.247Z,42.08
2022-11-24T18:29:05.963Z,40.40
2022-11-24T18:31:34.207Z,45.90
2022-11-24T18:34:01.479Z,46.70
2022-11-24T18:36:30.539Z,36.88
2022-11-24T18:39:00.054Z,43.33
2022-11-24T18:41:27.073Z,39.92
2022-11-24T18:43:53.499Z,44.72
2022-11-24T18:46:19.984Z,41.75
2022-11-24T18:48:46.995Z,41.88
2022-11-24T18:51:14.625Z,52.55
2022-11-24T18:53:42.712Z,50.60
2022-11-24T18:56:13.743Z,69.22
2022-11-24T18:58:40.350Z,125.20
2022-11-24T19:01:14.438Z,128.57
2022-11-24T19:03:48.360Z,105.03
2022-11-24T19:06:18.781Z,118.93
2022-11-24T19:08:45.610Z,87.15
2022-11-24T19:11:22.472Z,88.78
2022-11-24T19:13:49.539Z,76.90
2022-11-24T19:16:17.314Z,56.08
2022-11-24T19:18:46.486Z,70.05
2022-11-24T19:21:17.900Z,58.50
2022-11-24T19:23:44.330Z,67.78
2022-11-24T19:26:11.047Z,58.88
2022-11-24T19:28:37.543Z,59.00
2022-11-24T19:31:06.994Z,60.25
2022-11-24T19:33:33.830Z,54.08
2022-11-24T19:36:05.768Z,60.20
2022-11-24T19:38:33.459Z,46.92
2022-11-24T19:41:08.717Z,57.70
2022-11-24T19:43:35.246Z,50.03
2022-11-24T19:46:09.792Z,48.30
2022-11-24T19:48:38.277Z,47.50
2022-11-24T19:51:07.476Z,49.75
2022-11-24T19:53:34.881Z,53.50
2022-11-24T19:56:06.514Z,43.88
2022-11-24T19:58:32.970Z,50.78
2022-11-24T20:01:07.036Z,51.85
2022-11-24T20:03:33.996Z,48.88
2022-11-24T20:06:00.465Z,58.92
2022-11-24T20:08:31.151Z,72.38
2022-11-24T20:11:05.973Z,76.55
2022-11-24T20:13:34.597Z,85.72
2022-11-24T20:16:10.037Z,67.25
2022-11-24T20:18:41.967Z,63.42
2022-11-24T20:21:12.033Z,76.32
2022-11-24T20:23:39.518Z,71.75
2022-11-24T20:26:08.709Z,71.57
2022-11-24T20:28:35.199Z,70.32
2022-11-24T20:31:10.210Z,83.65
2022-11-24T20:33:37.425Z,62.55
2022-11-24T20:36:06.202Z,62.53
2022-11-24T20:38:34.384Z,60.30
2022-11-24T20:41:07.561Z,60.13
2022-11-24T20:43:35.884Z,51.10
2022-11-24T20:46:14.915Z,62.80
2022-11-24T20:48:41.521Z,60.85
2022-11-24T20:51:11.250Z,58.72
2022-11-24T20:53:38.749Z,57.25
2022-11-24T20:56:08.123Z,55.65
2022-11-24T20:58:35.969Z,59.55
2022-11-24T21:01:05.877Z,47.90
2022-11-24T21:03:34.639Z,45.08
2022-11-24T21:06:03.942Z,63.90
2022-11-24T21:08:36.152Z,61.92
2022-11-24T21:11:03.484Z,64.82
2022-11-24T21:13:33.682Z,61.38
2022-11-24T21:16:01.328Z,57.60
2022-11-24T21:18:27.826Z,67.00
2022-11-24T21:20:54.209Z,57.38
2022-11-24T21:23:20.670Z,53.33
2022-11-24T21:25:47.083Z,53.63
2022-11-24T21:28:13.724Z,57.58
2022-11-24T21:30:40.278Z,63.70
2022-11-24T21:33:07.051Z,58.15
2022-11-24T21:35:36.876Z,74.13
2022-11-24T21:38:03.961Z,67.10
2022-11-24T21:40:30.432Z,72.10
2022-11-24T21:42:59.344Z,66.80
2022-11-24T21:45:28.933Z,54.92
2022-11-24T21:47:59.926Z,81.38
2022-11-24T21:50:26.392Z,66.47
2022-11-24T21:52:52.852Z,70.00
2022-11-24T21:55:19.331Z,61.05
2022-11-24T21:57:46.331Z,64.57
2022-11-24T22:00:13.253Z,66.70
2022-11-24T22:02:39.769Z,59.35
2022-11-24T22:05:06.634Z,65.30
2022-11-24T22:07:33.202Z,60.40
2022-11-24T22:09:59.624Z,69.15
2022-11-24T22:12:26.066Z,82.57
2022-11-24T22:14:52.485Z,59.63
2022-11-24T22:17:18.972Z,71.35
2022-11-24T22:19:47.796Z,73.97
2022-11-24T22:22:14.247Z,61.75
2022-11-24T22:24:41.078Z,73.00
2022-11-24T22:27:07.745Z,68.45
2022-11-24T22:29:34.166Z,61.58
2022-11-24T22:32:00.774Z,71.40
2022-11-24T22:34:27.251Z,83.82
2022-11-24T22:36:53.745Z,77.10
2022-11-24T22:39:20.185Z,71.55
2022-11-24T22:41:46.711Z,69.13
2022-11-24T22:44:13.152Z,84.03
2022-11-24T22:46:39.545Z,74.30
2022-11-24T22:49:05.972Z,84.28
2022-11-24T22:51:34.518Z,85.20
2022-11-24T22:54:02.842Z,79.03
2022-11-24T22:56:32.033Z,76.68
2022-11-24T22:58:59.598Z,78.72
2022-11-24T23:01:27.586Z,72.85
2022-11-24T23:03:54.508Z,77.30
2022-11-24T23:06:23.691Z,83.50
2022-11-24T23:08:50.963Z,74.43
2022-11-24T23:11:29.142Z,86.20
2022-11-24T23:14:00.404Z,73.03
2022-11-24T23:16:27.617Z,67.70
2022-11-24T23:18:54.566Z,92.05
2022-11-24T23:21:27.185Z,76.15
2022-11-24T23:23:54.029Z,80.10
2022-11-24T23:26:23.426Z,85.65
2022-11-24T23:28:50.337Z,85.53
2022-11-24T23:31:22.154Z,89.63
2022-11-24T23:33:48.631Z,87.10
2022-11-24T23:36:17.260Z,65.55
2022-11-24T23:38:45.086Z,71.30
2022-11-24T23:41:14.643Z,77.80
2022-11-24T23:43:42.154Z,89.00
2022-11-24T23:46:14.659Z,93.88
2022-11-24T23:48:41.527Z,75.95
2022-11-24T23:51:12.184Z,87.97
2022-11-24T23:53:38.627Z,86.22
2022-11-24T23:56:05.848Z,92.25
2022-11-24T23:58:33.589Z,112.43
